Time;durP1;ratioP1;P1;durP2;ratioP2;P2;SDS_P1;SDS_P2;PMS_P1;PMS_P2;Temp;Humidity;BMP_temperature;BMP_pressure;BME280_temperature;BME280_humidity;BME280_pressure;Samples;Min_cycle;Max_cycle;Signal;HPM_P1;HPM_P2
2023/08/31 00:00:42;;;;;;;3.47;2.60;;;15.10;99.90;;;;;;4988371;28;20546;-69
2023/08/31 00:03:09;;;;;;;3.67;2.70;;;15.00;99.90;;;;;;5001072;28;20829;-69
2023/08/31 00:05:40;;;;;;;6.23;2.70;;;15.00;99.90;;;;;;4994169;28;20485;-70
2023/08/31 00:08:07;;;;;;;5.33;3.00;;;15.10;99.90;;;;;;4993240;28;20535;-70
2023/08/31 00:10:34;;;;;;;2.90;2.10;;;15.10;99.90;;;;;;4994143;28;20887;-70
2023/08/31 00:13:02;;;;;;;3.80;2.47;;;15.10;99.90;;;;;;4980185;28;20469;-70
2023/08/31 00:15:32;;;;;;;4.33;2.30;;;14.90;99.90;;;;;;4993052;28;20853;-70
2023/08/31 00:17:59;;;;;;;5.40;2.87;;;14.80;99.90;;;;;;4991210;28;20564;-71
2023/08/31 00:20:26;;;;;;;5.70;3.20;;;14.80;99.90;;;;;;4991870;28;20488;-70
2023/08/31 00:22:54;;;;;;;3.50;2.17;;;14.80;99.90;;;;;;4988554;28;20472;-71
2023/08/31 00:25:21;;;;;;;2.60;2.40;;;14.80;99.90;;;;;;4984503;28;20521;-70
2023/08/31 00:27:48;;;;;;;5.70;3.00;;;15.00;99.90;;;;;;4986506;28;20484;-70
2023/08/31 00:30:15;;;;;;;3.03;2.37;;;15.10;99.90;;;;;;5001584;28;20499;-69
2023/08/31 00:32:43;;;;;;;4.40;2.60;;;15.10;99.90;;;;;;4994587;28;20907;-71
2023/08/31 00:35:10;;;;;;;3.30;2.70;;;15.00;99.90;;;;;;4993845;28;20485;-70
2023/08/31 00:37:38;;;;;;;4.90;2.60;;;14.90;99.90;;;;;;4996707;28;20608;-71
2023/08/31 00:40:09;;;;;;;4.47;2.23;;;14.90;99.90;;;;;;4988643;28;20747;-69
2023/08/31 00:42:37;;;;;;;7.00;3.77;;;14.90;99.90;;;;;;4982179;28;20473;-70
2023/08/31 00:45:05;;;;;;;5.90;3.23;;;14.80;99.90;;;;;;4988023;28;20523;-71
2023/08/31 00:47:32;;;;;;;8.33;3.03;;;14.80;99.90;;;;;;4992893;28;20576;-72
2023/08/31 00:50:00;;;;;;;4.77;3.10;;;14.80;99.90;;;;;;4985501;28;20926;-70
2023/08/31 00:52:27;;;;;;;3.67;2.50;;;14.90;99.90;;;;;;4993463;28;21213;-71
2023/08/31 00:54:55;;;;;;;4.80;2.80;;;14.90;99.90;;;;;;4991616;28;20592;-69
2023/08/31 00:57:26;;;;;;;4.77;3.70;;;14.90;99.90;;;;;;4996507;28;20592;-70
2023/08/31 00:59:55;;;;;;;4.70;2.60;;;14.80;99.90;;;;;;4996649;28;20856;-71
2023/08/31 01:02:29;;;;;;;5.20;3.20;;;14.80;99.90;;;;;;4981621;28;20961;-71
2023/08/31 01:05:02;;;;;;;5.00;2.80;;;14.80;99.90;;;;;;4990353;28;20580;-69
2023/08/31 01:07:40;;;;;;;5.00;3.10;;;14.80;99.90;;;;;;4989145;28;20482;-70
2023/08/31 01:10:17;;;;;;;4.00;3.17;;;14.90;99.90;;;;;;4978353;28;20495;-71
2023/08/31 01:12:53;;;;;;;3.60;2.80;;;14.90;99.90;;;;;;4987637;28;20485;-70
2023/08/31 01:15:20;;;;;;;5.13;2.70;;;14.90;99.90;;;;;;4998339;28;20496;-71
2023/08/31 01:17:51;;;;;;;5.73;3.40;;;14.80;99.90;;;;;;4988489;28;20568;-69
2023/08/31 01:20:27;;;;;;;5.57;3.73;;;14.80;99.90;;;;;;4986743;28;20579;-71
2023/08/31 01:23:00;;;;;;;3.63;2.70;;;14.80;99.90;;;;;;4986470;28;20486;-71
2023/08/31 01:25:30;;;;;;;3.70;2.60;;;14.80;99.90;;;;;;4983671;28;20490;-72
2023/08/31 01:27:57;;;;;;;6.27;3.10;;;14.80;99.90;;;;;;4992459;28;20501;-69
2023/08/31 01:30:24;;;;;;;5.13;2.90;;;14.80;99.90;;;;;;4989115;28;20555;-71
2023/08/31 01:32:51;;;;;;;3.40;2.60;;;14.80;99.90;;;;;;4984456;28;20490;-71
2023/08/31 01:35:19;;;;;;;5.03;4.17;;;14.80;99.90;;;;;;4985615;28;20582;-71
2023/08/31 01:37:51;;;;;;;2.83;2.60;;;14.90;99.90;;;;;;4995397;28;20489;-71
2023/08/31 01:40:23;;;;;;;6.73;2.50;;;14.90;99.90;;;;;;4992215;28;21222;-72
2023/08/31 01:42:52;;;;;;;4.23;3.20;;;14.90;99.90;;;;;;4983464;28;20573;-72
2023/08/31 01:45:23;;;;;;;3.70;2.40;;;14.90;99.90;;;;;;4998279;28;21060;-72
2023/08/31 01:47:50;;;;;;;3.67;2.67;;;14.90;99.90;;;;;;4987746;28;20481;-72
2023/08/31 01:50:17;;;;;;;3.40;3.10;;;14.90;99.90;;;;;;4990337;28;20486;-72
2023/08/31 01:52:44;;;;;;;6.13;3.00;;;14.90;99.90;;;;;;4987607;28;20514;-71
2023/08/31 01:55:13;;;;;;;3.73;2.97;;;14.90;99.90;;;;;;4987778;28;20473;-72
2023/08/31 01:57:40;;;;;;;5.43;2.67;;;14.90;99.90;;;;;;4983346;28;20549;-69
2023/08/31 02:00:10;;;;;;;3.33;2.50;;;14.90;99.90;;;;;;4987497;28;20727;-72
2023/08/31 02:02:37;;;;;;;5.93;3.50;;;14.90;99.90;;;;;;4994564;28;20494;-72
2023/08/31 02:05:05;;;;;;;5.77;3.00;;;14.90;99.90;;;;;;4982055;28;21238;-73
2023/08/31 02:07:33;;;;;;;3.93;2.70;;;15.00;99.90;;;;;;4994755;28;20504;-70
2023/08/31 02:09:59;;;;;;;3.27;2.50;;;15.10;99.90;;;;;;4986616;28;20518;-71
2023/08/31 02:12:26;;;;;;;4.20;2.70;;;15.10;99.90;;;;;;4992742;28;20900;-71
2023/08/31 02:14:53;;;;;;;5.80;3.17;;;15.10;99.90;;;;;;4973946;28;20488;-72
2023/08/31 02:17:21;;;;;;;3.07;2.63;;;15.10;99.90;;;;;;4994786;28;20547;-73
2023/08/31 02:19:48;;;;;;;10.93;3.40;;;15.00;99.90;;;;;;4986156;28;20479;-74
2023/08/31 02:22:15;;;;;;;3.90;3.00;;;15.00;99.90;;;;;;4990065;28;20474;-72
2023/08/31 02:24:42;;;;;;;4.53;3.27;;;15.00;99.90;;;;;;4986484;28;20477;-71
2023/08/31 02:27:09;;;;;;;7.17;3.00;;;15.00;99.90;;;;;;4993701;28;21257;-71
2023/08/31 02:29:36;;;;;;;7.20;3.60;;;15.10;99.90;;;;;;4976110;28;21013;-70
2023/08/31 02:32:05;;;;;;;6.33;2.60;;;15.10;99.90;;;;;;5006551;28;20583;-70
2023/08/31 02:34:33;;;;;;;4.67;2.90;;;15.10;99.90;;;;;;4986495;28;20490;-70
2023/08/31 02:37:00;;;;;;;3.30;2.67;;;15.10;99.90;;;;;;4985613;28;20491;-69
2023/08/31 02:39:27;;;;;;;4.37;2.63;;;15.00;99.90;;;;;;4998554;28;20569;-70
2023/08/31 02:41:54;;;;;;;5.23;3.03;;;15.10;99.90;;;;;;4985873;28;21222;-68
2023/08/31 02:44:21;;;;;;;5.20;2.77;;;15.10;99.90;;;;;;4988625;28;20495;-69
2023/08/31 02:46:48;;;;;;;3.13;2.83;;;15.10;99.90;;;;;;4985930;28;21243;-68
2023/08/31 02:49:15;;;;;;;3.77;2.03;;;15.10;99.90;;;;;;4989787;28;20482;-69
2023/08/31 02:51:43;;;;;;;5.20;2.67;;;15.10;99.90;;;;;;4988845;28;20478;-70
2023/08/31 02:54:10;;;;;;;3.30;2.93;;;15.10;99.90;;;;;;4976773;28;21054;-70
2023/08/31 02:56:37;;;;;;;6.63;2.43;;;15.10;99.90;;;;;;4994326;28;20619;-70
2023/08/31 02:59:04;;;;;;;5.93;3.37;;;15.10;99.90;;;;;;4991284;28;20483;-70
2023/08/31 03:01:30;;;;;;;6.07;2.60;;;15.00;99.90;;;;;;4991057;28;20485;-70
2023/08/31 03:03:57;;;;;;;4.00;3.10;;;15.00;99.90;;;;;;4992759;28;20883;-70
2023/08/31 03:06:24;;;;;;;5.03;3.20;;;15.00;99.90;;;;;;5002327;28;20474;-69
2023/08/31 03:08:52;;;;;;;4.53;2.70;;;15.00;99.90;;;;;;4985090;28;20842;-70
2023/08/31 03:11:19;;;;;;;2.87;2.60;;;15.00;99.90;;;;;;4983993;28;21019;-69
2023/08/31 03:13:46;;;;;;;5.33;2.90;;;14.90;99.90;;;;;;4980318;28;20489;-69
2023/08/31 03:16:13;;;;;;;3.40;2.47;;;14.90;99.90;;;;;;4995055;28;20832;-70
2023/08/31 03:18:40;;;;;;;6.83;2.93;;;14.90;99.90;;;;;;4982682;28;20480;-70
2023/08/31 03:21:07;;;;;;;4.97;3.13;;;14.80;99.90;;;;;;4994401;28;20832;-69
2023/08/31 03:23:34;;;;;;;3.00;2.40;;;14.80;99.90;;;;;;4994554;28;20478;-69
2023/08/31 03:26:07;;;;;;;6.03;2.37;;;14.90;99.90;;;;;;4987212;28;21032;-69
2023/08/31 03:28:34;;;;;;;3.80;2.83;;;14.80;99.90;;;;;;4986202;28;20486;-69
2023/08/31 03:31:01;;;;;;;5.10;2.70;;;14.80;99.90;;;;;;4991451;28;20489;-69
2023/08/31 03:33:28;;;;;;;3.50;2.63;;;14.80;99.90;;;;;;4983922;28;20497;-69
2023/08/31 03:36:00;;;;;;;4.53;2.80;;;14.70;99.90;;;;;;4995935;28;20470;-70
2023/08/31 03:38:27;;;;;;;2.80;2.33;;;14.70;99.90;;;;;;4986882;28;20837;-69
2023/08/31 03:40:55;;;;;;;3.50;2.80;;;14.70;99.90;;;;;;4986055;28;20505;-70
2023/08/31 03:43:23;;;;;;;5.40;3.27;;;14.70;99.90;;;;;;4986791;28;20981;-69
2023/08/31 03:45:50;;;;;;;8.00;2.20;;;14.70;99.90;;;;;;4990150;28;20488;-69
2023/08/31 03:48:17;;;;;;;3.30;2.80;;;14.70;99.90;;;;;;4984156;28;20490;-69
2023/08/31 03:50:44;;;;;;;5.17;2.47;;;14.70;99.90;;;;;;4982535;28;20490;-70
2023/08/31 03:53:10;;;;;;;5.53;2.77;;;14.70;99.90;;;;;;4995876;28;20486;-71
2023/08/31 03:55:38;;;;;;;9.97;2.20;;;14.70;99.90;;;;;;4990000;28;21158;-70
2023/08/31 03:58:05;;;;;;;2.90;2.30;;;14.70;99.90;;;;;;4980121;28;20518;-71
2023/08/31 04:00:33;;;;;;;4.00;2.40;;;14.70;99.90;;;;;;4981830;28;20495;-69
2023/08/31 04:03:00;;;;;;;7.03;2.73;;;14.70;99.90;;;;;;4996395;28;20480;-71
2023/08/31 04:05:27;;;;;;;4.00;2.60;;;14.80;99.90;;;;;;4985929;28;20854;-70
2023/08/31 04:07:53;;;;;;;3.27;2.30;;;14.70;99.90;;;;;;4989096;28;20914;-70
2023/08/31 04:10:20;;;;;;;4.43;2.90;;;14.70;99.90;;;;;;4989613;28;20659;-69
2023/08/31 04:12:47;;;;;;;5.23;2.47;;;14.70;99.90;;;;;;4985523;28;20478;-69
2023/08/31 04:15:14;;;;;;;4.23;2.50;;;14.70;99.90;;;;;;4986934;28;20949;-69
2023/08/31 04:17:43;;;;;;;5.87;2.90;;;14.80;99.90;;;;;;4982772;28;20474;-69
2023/08/31 04:20:10;;;;;;;3.57;2.33;;;14.80;99.90;;;;;;4980123;28;20535;-69
2023/08/31 04:22:37;;;;;;;4.70;2.80;;;14.80;99.90;;;;;;4987750;28;20544;-69
2023/08/31 04:25:05;;;;;;;3.40;2.07;;;14.90;99.90;;;;;;4987598;28;20507;-69
2023/08/31 04:27:32;;;;;;;3.93;2.00;;;14.90;99.90;;;;;;4987587;28;20489;-69
2023/08/31 04:30:00;;;;;;;5.97;2.87;;;14.80;99.90;;;;;;4979287;28;20493;-69
2023/08/31 04:32:27;;;;;;;3.50;2.23;;;14.70;99.90;;;;;;4978951;28;20478;-68
2023/08/31 04:34:55;;;;;;;6.63;3.33;;;14.60;99.90;;;;;;4985724;28;20508;-68
2023/08/31 04:37:22;;;;;;;3.80;2.70;;;14.50;99.90;;;;;;4991870;28;20682;-68
2023/08/31 04:39:49;;;;;;;3.90;2.23;;;14.50;99.90;;;;;;4983176;28;20678;-68
2023/08/31 04:42:17;;;;;;;3.17;2.37;;;14.50;99.90;;;;;;4983170;28;20493;-69
2023/08/31 04:44:44;;;;;;;5.13;3.30;;;14.50;99.90;;;;;;4984373;28;20485;-68
2023/08/31 04:47:11;;;;;;;16.13;2.80;;;14.50;99.90;;;;;;4997451;28;20890;-69
2023/08/31 04:49:38;;;;;;;4.20;2.70;;;14.40;99.90;;;;;;4981516;28;20482;-69
2023/08/31 04:52:07;;;;;;;4.17;3.20;;;14.50;99.90;;;;;;4982263;28;20508;-68
2023/08/31 04:54:34;;;;;;;2.80;2.33;;;14.40;99.90;;;;;;4987459;28;20519;-68
2023/08/31 04:57:00;;;;;;;4.53;2.93;;;14.40;99.90;;;;;;4989393;28;20511;-68
2023/08/31 04:59:27;;;;;;;4.00;2.57;;;14.40;99.90;;;;;;4990836;28;20473;-68
2023/08/31 05:01:54;;;;;;;3.80;2.90;;;14.40;99.90;;;;;;4988509;28;21127;-68
2023/08/31 05:04:21;;;;;;;6.17;3.33;;;14.40;99.90;;;;;;4992430;28;20479;-68
2023/08/31 05:06:48;;;;;;;4.07;3.67;;;14.30;99.90;;;;;;4988961;28;20482;-69
2023/08/31 05:09:17;;;;;;;7.10;4.10;;;14.20;99.90;;;;;;4978491;28;20506;-69
2023/08/31 05:11:45;;;;;;;5.00;3.67;;;14.10;99.90;;;;;;5003735;28;20577;-69
2023/08/31 05:14:12;;;;;;;5.40;3.50;;;14.10;99.90;;;;;;4983785;28;20478;-68
2023/08/31 05:16:38;;;;;;;6.40;3.50;;;14.10;99.90;;;;;;4994586;28;20600;-69
2023/08/31 05:19:05;;;;;;;4.97;2.70;;;14.10;99.90;;;;;;4988636;28;20520;-69
2023/08/31 05:21:32;;;;;;;8.93;3.50;;;14.10;99.90;;;;;;4991399;28;20590;-69
2023/08/31 05:23:59;;;;;;;4.93;2.50;;;14.20;99.90;;;;;;4991280;28;20576;-69
2023/08/31 05:26:27;;;;;;;3.37;3.03;;;14.20;99.90;;;;;;4993400;28;21281;-68
2023/08/31 05:28:54;;;;;;;4.57;2.63;;;14.10;99.90;;;;;;4994080;28;20538;-68
2023/08/31 05:31:21;;;;;;;3.63;3.00;;;14.10;99.90;;;;;;4994015;28;20482;-68
2023/08/31 05:33:48;;;;;;;4.07;3.37;;;14.10;99.90;;;;;;4984074;28;20474;-68
2023/08/31 05:36:15;;;;;;;3.93;3.40;;;14.00;99.90;;;;;;4986170;28;20709;-68
2023/08/31 05:38:42;;;;;;;9.73;2.80;;;13.90;99.90;;;;;;4990199;28;20479;-68
2023/08/31 05:41:09;;;;;;;3.73;3.03;;;13.90;99.90;;;;;;4980516;28;20607;-69
2023/08/31 05:43:40;;;;;;;4.10;3.13;;;13.90;99.90;;;;;;4988416;28;20521;-68
2023/08/31 05:46:07;;;;;;;4.67;3.10;;;14.00;99.90;;;;;;4998396;28;20828;-68
2023/08/31 05:48:34;;;;;;;6.90;3.93;;;14.00;99.90;;;;;;4980076;28;20489;-69
2023/08/31 05:51:01;;;;;;;4.73;3.00;;;14.00;99.90;;;;;;4994302;28;20509;-68
2023/08/31 05:53:28;;;;;;;4.33;2.80;;;14.00;99.90;;;;;;4982245;28;20490;-68
2023/08/31 05:56:03;;;;;;;4.20;3.07;;;14.00;99.90;;;;;;4989872;28;20590;-69
2023/08/31 05:58:29;;;;;;;9.00;4.00;;;14.00;99.90;;;;;;4978927;28;20478;-68
2023/08/31 06:00:58;;;;;;;7.80;3.70;;;14.10;99.90;;;;;;4988913;28;20470;-68
2023/08/31 06:03:25;;;;;;;4.10;2.50;;;14.20;99.90;;;;;;4988605;28;20567;-68
2023/08/31 06:05:52;;;;;;;5.17;3.47;;;14.30;99.90;;;;;;5001015;28;20483;-68
2023/08/31 06:08:18;;;;;;;4.93;3.10;;;14.30;99.90;;;;;;4990851;28;20496;-68
2023/08/31 06:10:45;;;;;;;10.20;3.00;;;14.50;99.90;;;;;;4988133;28;20817;-70
2023/08/31 06:13:12;;;;;;;7.57;3.10;;;14.50;99.90;;;;;;4995864;28;20489;-70
2023/08/31 06:15:39;;;;;;;7.33;2.97;;;14.60;99.90;;;;;;4987726;28;20498;-70
2023/08/31 06:18:08;;;;;;;6.77;2.90;;;14.70;99.90;;;;;;4984821;28;20477;-70
2023/08/31 06:20:34;;;;;;;5.40;2.60;;;14.70;99.90;;;;;;4980648;28;20576;-70
2023/08/31 06:23:01;;;;;;;2.97;2.07;;;14.90;99.90;;;;;;4986020;28;20473;-69
2023/08/31 06:25:28;;;;;;;16.10;3.80;;;15.00;99.90;;;;;;4989046;28;21157;-68
2023/08/31 06:27:55;;;;;;;4.97;2.90;;;15.20;99.90;;;;;;4988854;28;20497;-68
2023/08/31 06:30:22;;;;;;;4.73;2.83;;;15.30;99.90;;;;;;4986451;28;20489;-69
2023/08/31 06:32:50;;;;;;;5.00;2.40;;;15.40;99.90;;;;;;4987260;28;20473;-71
2023/08/31 06:35:19;;;;;;;5.40;2.73;;;15.50;99.90;;;;;;4987224;28;20507;-69
2023/08/31 06:37:46;;;;;;;8.40;3.17;;;15.60;99.90;;;;;;4989542;28;20689;-69
2023/08/31 06:40:13;;;;;;;9.90;3.60;;;15.70;99.90;;;;;;4986246;28;20842;-69
2023/08/31 06:42:40;;;;;;;4.67;3.13;;;16.00;99.90;;;;;;4990396;28;20581;-69
2023/08/31 06:45:09;;;;;;;3.63;3.13;;;16.10;99.90;;;;;;4986913;28;20989;-70
2023/08/31 06:47:37;;;;;;;3.87;2.30;;;16.50;99.90;;;;;;4988270;28;21066;-68
2023/08/31 06:50:06;;;;;;;6.57;2.50;;;17.10;99.90;;;;;;4985645;28;20567;-68
2023/08/31 06:52:34;;;;;;;4.00;2.30;;;17.80;99.90;;;;;;4988834;28;20495;-68
2023/08/31 06:55:02;;;;;;;11.53;3.20;;;18.70;99.90;;;;;;4987943;28;20489;-69
2023/08/31 06:57:29;;;;;;;2.90;2.17;;;19.40;99.90;;;;;;4989755;28;20590;-69
2023/08/31 06:59:56;;;;;;;4.67;1.87;;;19.70;99.90;;;;;;4990831;28;20478;-68
2023/08/31 07:02:24;;;;;;;6.73;3.07;;;19.70;99.90;;;;;;4988739;28;20485;-68
2023/08/31 07:04:52;;;;;;;3.60;2.03;;;19.50;99.90;;;;;;4991416;28;21107;-68
2023/08/31 07:07:18;;;;;;;4.77;2.53;;;19.60;99.90;;;;;;4988309;28;20592;-68
2023/08/31 07:09:48;;;;;;;5.03;2.37;;;19.70;99.90;;;;;;4986546;28;20900;-74
2023/08/31 07:12:15;;;;;;;6.43;2.53;;;19.70;99.90;;;;;;4987261;28;20482;-69
2023/08/31 07:14:42;;;;;;;6.23;2.90;;;19.60;99.60;;;;;;4989485;28;21054;-68
2023/08/31 07:17:09;;;;;;;5.53;3.03;;;19.40;99.90;;;;;;4991491;28;20480;-68
2023/08/31 07:19:37;;;;;;;5.30;1.70;;;19.40;99.80;;;;;;4988650;28;20485;-66
2023/08/31 07:22:06;;;;;;;3.63;3.13;;;19.00;99.60;;;;;;4989595;28;20798;-68
2023/08/31 07:24:34;;;;;;;6.60;2.30;;;19.10;99.90;;;;;;4995624;28;20585;-69
2023/08/31 07:27:03;;;;;;;3.73;1.70;;;18.80;99.90;;;;;;4990715;28;20584;-67
2023/08/31 07:29:31;;;;;;;4.27;1.67;;;18.80;99.90;;;;;;4991766;28;20481;-68
2023/08/31 07:31:57;;;;;;;5.43;1.70;;;18.80;99.90;;;;;;4988525;28;20480;-67
2023/08/31 07:34:25;;;;;;;2.50;2.13;;;18.80;99.90;;;;;;4987483;28;21498;-68
2023/08/31 07:36:51;;;;;;;3.37;1.90;;;18.60;99.90;;;;;;4991090;28;20477;-68
2023/08/31 07:39:18;;;;;;;2.97;1.73;;;18.60;99.90;;;;;;4989316;28;20878;-68
2023/08/31 07:41:45;;;;;;;3.10;1.97;;;18.70;99.90;;;;;;4988938;28;20486;-67
2023/08/31 07:44:14;;;;;;;3.80;1.97;;;18.60;99.90;;;;;;4987243;28;20513;-67
2023/08/31 07:46:40;;;;;;;4.40;1.80;;;18.50;99.90;;;;;;4981521;28;20572;-68
2023/08/31 07:49:07;;;;;;;2.77;2.00;;;18.50;99.90;;;;;;4990649;28;20856;-68
2023/08/31 07:51:34;;;;;;;2.50;1.90;;;18.60;99.90;;;;;;4990080;28;20848;-68
2023/08/31 07:54:03;;;;;;;5.93;1.90;;;18.50;99.90;;;;;;4969873;28;21008;-68
2023/08/31 07:56:30;;;;;;;3.17;1.80;;;18.60;99.90;;;;;;4999890;28;21133;-67
2023/08/31 07:58:56;;;;;;;5.67;2.10;;;18.60;99.90;;;;;;4987970;28;21965;-66
2023/08/31 08:01:25;;;;;;;2.93;2.13;;;18.60;99.90;;;;;;4984528;28;20491;-66
2023/08/31 08:03:52;;;;;;;2.70;1.77;;;18.40;99.40;;;;;;4990358;28;20480;-66
2023/08/31 08:06:18;;;;;;;5.80;2.60;;;18.50;99.90;;;;;;4986784;28;20473;-66
2023/08/31 08:08:45;;;;;;;2.63;1.60;;;18.50;99.90;;;;;;4990936;28;20789;-68
2023/08/31 08:11:12;;;;;;;3.57;1.47;;;18.70;99.90;;;;;;4987940;28;20478;-67
2023/08/31 08:13:39;;;;;;;7.30;2.50;;;18.60;99.90;;;;;;4994035;28;20488;-68
2023/08/31 08:16:08;;;;;;;2.87;1.93;;;18.50;99.60;;;;;;4989571;28;21091;-68
2023/08/31 08:18:37;;;;;;;3.00;2.10;;;18.70;99.30;;;;;;4992784;28;20932;-68
2023/08/31 08:21:04;;;;;;;5.90;2.43;;;18.70;99.90;;;;;;4989776;28;20522;-68
2023/08/31 08:23:31;;;;;;;7.63;2.30;;;18.70;98.90;;;;;;4992766;28;20484;-67
2023/08/31 08:25:59;;;;;;;6.13;1.83;;;18.60;99.20;;;;;;4991211;28;20492;-67
2023/08/31 08:28:26;;;;;;;6.10;2.53;;;18.70;98.30;;;;;;4997545;28;20477;-71
2023/08/31 08:30:53;;;;;;;8.27;3.03;;;18.90;98.40;;;;;;4991908;28;20843;-70
2023/08/31 08:33:19;;;;;;;5.23;2.20;;;19.00;99.50;;;;;;4990896;28;20903;-72
2023/08/31 08:35:48;;;;;;;3.90;2.10;;;19.30;99.50;;;;;;4987359;28;20832;-72
2023/08/31 08:38:14;;;;;;;5.43;2.47;;;19.30;99.40;;;;;;4990113;28;20488;-71
2023/08/31 08:40:41;;;;;;;6.63;2.50;;;19.50;99.00;;;;;;4987647;28;20478;-67
2023/08/31 08:43:08;;;;;;;4.90;2.47;;;19.30;98.90;;;;;;4989795;28;20984;-68
2023/08/31 08:45:38;;;;;;;4.17;2.70;;;19.20;99.20;;;;;;4989141;28;20881;-66
2023/08/31 08:48:07;;;;;;;4.47;2.00;;;19.30;99.60;;;;;;4990836;28;20506;-67
2023/08/31 08:50:35;;;;;;;4.70;1.93;;;19.20;98.60;;;;;;4991270;28;20477;-68
2023/08/31 08:53:04;;;;;;;2.47;1.67;;;19.20;98.20;;;;;;4988493;28;21079;-69
2023/08/31 08:55:31;;;;;;;2.77;2.07;;;19.30;98.60;;;;;;4991813;28;20579;-67
2023/08/31 08:57:59;;;;;;;5.60;3.33;;;19.30;99.30;;;;;;4991279;28;20483;-67
2023/08/31 09:00:27;;;;;;;5.57;2.70;;;19.50;98.20;;;;;;4992181;28;20484;-65
2023/08/31 09:02:53;;;;;;;2.17;1.50;;;19.50;98.50;;;;;;4990445;28;20484;-65
2023/08/31 09:05:21;;;;;;;2.50;1.60;;;19.70;98.90;;;;;;4990965;28;20478;-64
2023/08/31 09:08:03;;;;;;;3.60;1.63;;;19.90;97.10;;;;;;4993319;28;20476;-66
2023/08/31 09:10:37;;;;;;;6.87;2.63;;;19.90;97.50;;;;;;4988042;28;20573;-66
2023/08/31 09:13:08;;;;;;;8.90;1.60;;;19.70;96.80;;;;;;4990845;28;20484;-66
2023/08/31 09:15:40;;;;;;;6.40;1.83;;;19.70;97.20;;;;;;4991677;28;20484;-65
2023/08/31 09:18:07;;;;;;;5.40;2.10;;;19.60;96.90;;;;;;4988397;28;20486;-66
2023/08/31 09:20:44;;;;;;;7.00;2.13;;;19.70;97.60;;;;;;4991809;28;20585;-65
2023/08/31 09:23:12;;;;;;;5.63;1.73;;;19.50;97.00;;;;;;4989703;28;20484;-66
2023/08/31 09:25:43;;;;;;;4.73;2.40;;;19.40;97.30;;;;;;4992059;28;20481;-66
2023/08/31 09:28:10;;;;;;;2.00;1.30;;;19.50;97.60;;;;;;4991238;28;20677;-65
2023/08/31 09:30:37;;;;;;;7.23;2.13;;;19.40;97.10;;;;;;4990562;28;20474;-66
2023/08/31 09:33:05;;;;;;;6.90;2.43;;;19.30;97.30;;;;;;4995776;28;20481;-65
2023/08/31 09:35:32;;;;;;;4.13;1.37;;;19.30;97.00;;;;;;4991158;28;20473;-66
2023/08/31 09:37:59;;;;;;;2.60;1.80;;;19.40;97.70;;;;;;4988935;28;21008;-66
2023/08/31 09:40:28;;;;;;;3.93;2.00;;;19.30;98.70;;;;;;4988057;28;20496;-66
2023/08/31 09:42:54;;;;;;;4.67;2.03;;;19.20;99.00;;;;;;4987067;28;20484;-66
2023/08/31 09:45:30;;;;;;;3.43;2.10;;;19.10;98.60;;;;;;4986171;28;20505;-65
2023/08/31 09:47:57;;;;;;;4.37;1.83;;;19.10;98.10;;;;;;4988209;28;20829;-66
2023/08/31 09:50:26;;;;;;;2.50;1.73;;;19.20;98.80;;;;;;4989901;28;20586;-67
2023/08/31 09:52:57;;;;;;;4.00;1.80;;;19.20;97.40;;;;;;4989779;28;20478;-66
2023/08/31 09:55:29;;;;;;;5.10;2.17;;;19.60;97.80;;;;;;4988728;28;20473;-65
2023/08/31 09:57:58;;;;;;;5.03;2.07;;;19.70;97.10;;;;;;4996407;28;20480;-66
2023/08/31 10:00:26;;;;;;;5.40;1.90;;;20.00;97.20;;;;;;4989929;28;21274;-67
2023/08/31 10:02:56;;;;;;;7.23;3.27;;;20.10;96.90;;;;;;4988779;28;20469;-70
2023/08/31 10:05:24;;;;;;;2.83;1.93;;;20.10;96.40;;;;;;4991365;28;20707;-68
2023/08/31 10:07:52;;;;;;;2.83;1.90;;;20.40;96.30;;;;;;4991990;28;20481;-67
2023/08/31 10:10:20;;;;;;;5.60;1.80;;;20.40;96.80;;;;;;4991156;28;20470;-67
2023/08/31 10:12:49;;;;;;;5.93;1.80;;;20.60;97.70;;;;;;4989783;28;20979;-67
2023/08/31 10:15:17;;;;;;;3.23;2.13;;;20.70;99.00;;;;;;4991121;28;20484;-70
2023/08/31 10:17:44;;;;;;;2.60;1.60;;;20.60;96.20;;;;;;4987732;28;20853;-68
2023/08/31 10:20:14;;;;;;;5.57;2.20;;;20.90;96.70;;;;;;4989769;28;20505;-66
2023/08/31 10:22:41;;;;;;;2.40;1.90;;;20.70;96.30;;;;;;4989867;28;20469;-64
2023/08/31 10:25:11;;;;;;;2.23;1.73;;;20.50;95.80;;;;;;4984584;28;20516;-65
2023/08/31 10:27:38;;;;;;;8.20;2.83;;;20.20;94.70;;;;;;4986604;28;20478;-65
2023/08/31 10:30:27;;;;;;;3.93;2.30;;;20.20;95.60;;;;;;4978230;28;20483;-65
2023/08/31 10:33:18;;;;;;;17.43;2.40;;;20.20;95.40;;;;;;4998159;28;20557;-67
2023/08/31 10:35:50;;;;;;;4.10;1.80;;;20.20;95.40;;;;;;4986223;28;20996;-66
2023/08/31 10:38:18;;;;;;;4.13;2.53;;;20.20;95.20;;;;;;4990378;28;20956;-66
2023/08/31 10:41:04;;;;;;;4.57;1.93;;;20.30;95.20;;;;;;4989335;28;21144;-66
2023/08/31 10:43:49;;;;;;;4.00;2.03;;;20.10;95.40;;;;;;4989712;28;21095;-66
2023/08/31 10:46:31;;;;;;;4.70;2.67;;;19.70;94.90;;;;;;4987163;28;20934;-67
2023/08/31 10:48:59;;;;;;;7.60;2.10;;;20.10;95.50;;;;;;4974198;28;20794;-67
2023/08/31 10:51:29;;;;;;;4.37;2.07;;;20.30;95.80;;;;;;4988374;28;20477;-65
2023/08/31 10:54:09;;;;;;;11.00;2.87;;;20.70;96.50;;;;;;4989527;28;20482;-70
2023/08/31 10:56:53;;;;;;;5.70;2.77;;;20.70;95.90;;;;;;4989727;28;21223;-66
2023/08/31 10:59:20;;;;;;;4.87;2.10;;;20.70;94.70;;;;;;4990064;28;20474;-67
2023/08/31 11:01:56;;;;;;;3.63;2.03;;;20.60;94.70;;;;;;4987754;28;20482;-68
2023/08/31 11:04:24;;;;;;;3.80;2.40;;;20.50;95.20;;;;;;4989986;28;21024;-67
2023/08/31 11:07:12;;;;;;;4.27;2.20;;;20.40;94.80;;;;;;4992921;28;20597;-67
2023/08/31 11:09:39;;;;;;;4.83;2.17;;;20.40;95.70;;;;;;4990170;28;20484;-67
2023/08/31 11:12:07;;;;;;;5.03;2.60;;;20.40;95.30;;;;;;4988372;28;21043;-67
2023/08/31 11:14:34;;;;;;;8.47;2.87;;;20.40;95.30;;;;;;4982357;28;20481;-66
2023/08/31 11:17:04;;;;;;;4.37;2.27;;;20.30;95.60;;;;;;4997541;28;20481;-67
2023/08/31 11:19:31;;;;;;;4.60;2.70;;;19.90;94.60;;;;;;4987561;28;21088;-65
2023/08/31 11:21:59;;;;;;;5.53;2.43;;;20.00;95.30;;;;;;4988118;28;20701;-67
2023/08/31 11:24:26;;;;;;;7.50;2.20;;;20.20;96.20;;;;;;4989872;28;20554;-69
2023/08/31 11:26:54;;;;;;;3.47;1.60;;;20.30;95.40;;;;;;4989241;28;20558;-68
2023/08/31 11:29:21;;;;;;;3.17;2.03;;;20.40;95.00;;;;;;4974761;28;20526;-70
2023/08/31 11:31:48;;;;;;;6.80;3.03;;;20.60;95.10;;;;;;5000265;28;20482;-67
2023/08/31 11:34:17;;;;;;;6.90;2.40;;;20.60;95.70;;;;;;4979660;28;20647;-67
2023/08/31 11:36:45;;;;;;;5.30;2.30;;;20.30;94.80;;;;;;4999470;28;20481;-69
2023/08/31 11:39:12;;;;;;;3.63;2.20;;;20.00;94.50;;;;;;4988054;28;20793;-68
2023/08/31 11:41:42;;;;;;;3.63;2.10;;;20.10;94.70;;;;;;4989129;28;20507;-66
2023/08/31 11:44:10;;;;;;;6.10;2.20;;;19.90;95.20;;;;;;4987414;28;20448;-67
2023/08/31 11:46:37;;;;;;;2.60;2.33;;;20.20;96.00;;;;;;4990343;28;21032;-67
2023/08/31 11:49:05;;;;;;;4.40;2.03;;;20.50;96.20;;;;;;4991170;28;20499;-68
2023/08/31 11:51:35;;;;;;;4.10;2.33;;;20.70;95.20;;;;;;4995158;28;21152;-68
2023/08/31 11:54:03;;;;;;;4.83;2.03;;;20.90;95.00;;;;;;4983879;28;20485;-68
2023/08/31 11:56:40;;;;;;;4.47;2.77;;;21.00;95.40;;;;;;4995299;28;20477;-72
2023/08/31 11:59:10;;;;;;;6.23;2.70;;;21.00;94.40;;;;;;4982995;28;20824;-68
2023/08/31 12:01:40;;;;;;;4.73;2.10;;;21.10;94.30;;;;;;4995724;28;20492;-67
2023/08/31 12:04:12;;;;;;;3.00;1.97;;;21.10;94.90;;;;;;4994755;28;20481;-67
2023/08/31 12:06:40;;;;;;;3.53;2.83;;;21.00;94.40;;;;;;4981996;28;20496;-70
2023/08/31 12:09:08;;;;;;;3.30;2.50;;;21.10;94.60;;;;;;4992001;28;20481;-69
2023/08/31 12:11:36;;;;;;;4.00;3.27;;;20.80;94.60;;;;;;4994677;28;20456;-67
2023/08/31 12:14:04;;;;;;;7.57;2.83;;;20.80;95.00;;;;;;4993693;28;20477;-71
2023/08/31 12:16:36;;;;;;;2.43;1.93;;;20.80;94.60;;;;;;4990449;28;20999;-67
2023/08/31 12:19:04;;;;;;;2.27;1.93;;;21.10;95.00;;;;;;4990387;28;20810;-67
2023/08/31 12:21:32;;;;;;;6.23;2.37;;;21.10;93.60;;;;;;5002129;28;20484;-67
2023/08/31 12:24:00;;;;;;;3.53;1.83;;;21.10;93.20;;;;;;4994139;28;20456;-67
2023/08/31 12:26:28;;;;;;;3.00;2.13;;;21.20;93.30;;;;;;4994404;28;20469;-68
2023/08/31 12:28:55;;;;;;;4.17;2.17;;;21.00;92.40;;;;;;4992544;28;20968;-68
2023/08/31 12:31:23;;;;;;;7.33;2.23;;;20.90;92.30;;;;;;4999122;28;20465;-67
2023/08/31 12:33:50;;;;;;;8.43;2.93;;;20.80;93.50;;;;;;5000094;28;20588;-67
2023/08/31 12:36:17;;;;;;;3.73;2.33;;;20.60;93.50;;;;;;4993203;28;20564;-67
2023/08/31 12:38:44;;;;;;;11.33;2.90;;;20.60;93.90;;;;;;4994262;28;20448;-69
2023/08/31 12:41:13;;;;;;;9.20;2.80;;;20.40;93.60;;;;;;4990874;28;22176;-68
2023/08/31 12:43:40;;;;;;;6.20;2.47;;;20.40;94.90;;;;;;4999128;28;21158;-69
2023/08/31 12:46:07;;;;;;;5.53;2.30;;;20.20;94.70;;;;;;4993902;28;21034;-68
2023/08/31 12:48:34;;;;;;;4.63;2.43;;;20.20;95.10;;;;;;4994829;28;20556;-69
2023/08/31 12:51:01;;;;;;;7.50;2.70;;;20.20;94.70;;;;;;4994055;28;20481;-69